Terminal Aerodrome Forecast
Issued by NWS Wilmington, OH

Current Version | Previous Version | Text Only | Print | Product List | Glossary On
Versions: 1 2 3 4 5 6 7 8 9 10 11 12 13 14 15 16 17 18 19 20 21
481
FTUS41 KILN 212341
TAFCVG
TAF
KCVG 212341Z 2200/2306 15005KT P6SM SCT250
     FM221500 17010KT P6SM BKN150
     FM230000 15007KT P6SM BKN100=

USA.gov is the U.S. government's official web portal to all federal, state and local government web resources and services.